sensor_id;sensor_type;location;lat;lon;timestamp;P1;durP1;ratioP1;P2;durP2;ratioP2
24521;SDS011;12680;57.804;12.190;2022-09-29T00:02:21;1.45;;;1.35;;
24521;SDS011;12680;57.804;12.190;2022-09-29T00:04:49;1.83;;;1.40;;
24521;SDS011;12680;57.804;12.190;2022-09-29T00:07:16;3.95;;;1.58;;
24521;SDS011;12680;57.804;12.190;2022-09-29T00:09:43;3.33;;;1.85;;
24521;SDS011;12680;57.804;12.190;2022-09-29T00:12:10;4.72;;;1.75;;
24521;SDS011;12680;57.804;12.190;2022-09-29T00:14:37;1.80;;;1.65;;
24521;SDS011;12680;57.804;12.190;2022-09-29T00:17:04;3.08;;;1.75;;
24521;SDS011;12680;57.804;12.190;2022-09-29T00:19:31;1.95;;;1.63;;
24521;SDS011;12680;57.804;12.190;2022-09-29T00:21:59;2.45;;;1.75;;
24521;SDS011;12680;57.804;12.190;2022-09-29T00:24:27;2.22;;;1.65;;
24521;SDS011;12680;57.804;12.190;2022-09-29T00:26:54;1.67;;;1.58;;
24521;SDS011;12680;57.804;12.190;2022-09-29T00:29:21;2.03;;;1.58;;
24521;SDS011;12680;57.804;12.190;2022-09-29T00:31:49;3.35;;;1.83;;
24521;SDS011;12680;57.804;12.190;2022-09-29T00:34:16;1.70;;;1.48;;
24521;SDS011;12680;57.804;12.190;2022-09-29T00:36:43;2.80;;;1.75;;
24521;SDS011;12680;57.804;12.190;2022-09-29T00:39:11;3.97;;;2.10;;
24521;SDS011;12680;57.804;12.190;2022-09-29T00:41:38;2.33;;;1.33;;
24521;SDS011;12680;57.804;12.190;2022-09-29T00:49:16;5.07;;;1.63;;
24521;SDS011;12680;57.804;12.190;2022-09-29T00:54:41;2.90;;;1.75;;
24521;SDS011;12680;57.804;12.190;2022-09-29T00:57:11;3.05;;;1.80;;
24521;SDS011;12680;57.804;12.190;2022-09-29T00:59:45;4.30;;;1.67;;
24521;SDS011;12680;57.804;12.190;2022-09-29T01:02:35;2.80;;;1.75;;
24521;SDS011;12680;57.804;12.190;2022-09-29T01:05:07;2.25;;;1.88;;
24521;SDS011;12680;57.804;12.190;2022-09-29T01:07:39;2.58;;;1.80;;
24521;SDS011;12680;57.804;12.190;2022-09-29T01:10:10;4.55;;;1.90;;
24521;SDS011;12680;57.804;12.190;2022-09-29T01:12:39;3.00;;;2.17;;
24521;SDS011;12680;57.804;12.190;2022-09-29T01:15:07;2.22;;;1.77;;
24521;SDS011;12680;57.804;12.190;2022-09-29T01:17:35;2.83;;;1.77;;
24521;SDS011;12680;57.804;12.190;2022-09-29T01:20:12;3.63;;;2.20;;
24521;SDS011;12680;57.804;12.190;2022-09-29T01:28:29;4.78;;;1.90;;
24521;SDS011;12680;57.804;12.190;2022-09-29T01:34:36;3.33;;;2.50;;
24521;SDS011;12680;57.804;12.190;2022-09-29T01:37:53;2.45;;;1.83;;
24521;SDS011;12680;57.804;12.190;2022-09-29T01:42:35;3.05;;;1.75;;
24521;SDS011;12680;57.804;12.190;2022-09-29T01:45:12;5.50;;;1.85;;
24521;SDS011;12680;57.804;12.190;2022-09-29T01:47:48;3.60;;;2.15;;
24521;SDS011;12680;57.804;12.190;2022-09-29T01:50:32;5.18;;;2.22;;
24521;SDS011;12680;57.804;12.190;2022-09-29T01:53:40;5.88;;;2.20;;
24521;SDS011;12680;57.804;12.190;2022-09-29T01:56:05;3.60;;;1.80;;
24521;SDS011;12680;57.804;12.190;2022-09-29T01:58:42;2.33;;;2.08;;
24521;SDS011;12680;57.804;12.190;2022-09-29T02:01:17;4.05;;;2.28;;
24521;SDS011;12680;57.804;12.190;2022-09-29T02:03:49;3.88;;;2.13;;
24521;SDS011;12680;57.804;12.190;2022-09-29T02:06:31;3.03;;;1.90;;
24521;SDS011;12680;57.804;12.190;2022-09-29T02:09:04;3.67;;;2.03;;
24521;SDS011;12680;57.804;12.190;2022-09-29T02:11:37;3.67;;;2.33;;
24521;SDS011;12680;57.804;12.190;2022-09-29T02:14:12;2.63;;;2.15;;
24521;SDS011;12680;57.804;12.190;2022-09-29T02:16:44;2.25;;;2.00;;
24521;SDS011;12680;57.804;12.190;2022-09-29T02:19:16;4.63;;;1.75;;
24521;SDS011;12680;57.804;12.190;2022-09-29T02:24:13;2.83;;;2.10;;
24521;SDS011;12680;57.804;12.190;2022-09-29T02:26:41;5.82;;;2.50;;
24521;SDS011;12680;57.804;12.190;2022-09-29T02:29:10;6.20;;;2.20;;
24521;SDS011;12680;57.804;12.190;2022-09-29T02:31:38;3.22;;;2.35;;
24521;SDS011;12680;57.804;12.190;2022-09-29T02:34:07;4.65;;;2.58;;
24521;SDS011;12680;57.804;12.190;2022-09-29T02:42:11;4.93;;;2.10;;
24521;SDS011;12680;57.804;12.190;2022-09-29T02:45:09;4.10;;;1.98;;
24521;SDS011;12680;57.804;12.190;2022-09-29T02:50:37;3.53;;;2.30;;
24521;SDS011;12680;57.804;12.190;2022-09-29T02:58:39;3.42;;;2.35;;
24521;SDS011;12680;57.804;12.190;2022-09-29T03:01:23;6.57;;;2.50;;
24521;SDS011;12680;57.804;12.190;2022-09-29T03:03:50;2.25;;;2.05;;
24521;SDS011;12680;57.804;12.190;2022-09-29T03:06:17;3.47;;;2.20;;
24521;SDS011;12680;57.804;12.190;2022-09-29T03:08:47;2.58;;;2.10;;
24521;SDS011;12680;57.804;12.190;2022-09-29T03:11:14;3.83;;;2.20;;
24521;SDS011;12680;57.804;12.190;2022-09-29T03:13:41;3.03;;;2.10;;
24521;SDS011;12680;57.804;12.190;2022-09-29T03:16:08;3.60;;;2.20;;
24521;SDS011;12680;57.804;12.190;2022-09-29T03:18:35;2.88;;;2.00;;
24521;SDS011;12680;57.804;12.190;2022-09-29T03:21:02;3.30;;;2.28;;
24521;SDS011;12680;57.804;12.190;2022-09-29T03:23:29;2.35;;;2.03;;
24521;SDS011;12680;57.804;12.190;2022-09-29T03:25:57;2.28;;;2.05;;
24521;SDS011;12680;57.804;12.190;2022-09-29T03:28:24;2.33;;;2.08;;
24521;SDS011;12680;57.804;12.190;2022-09-29T03:30:52;3.42;;;1.98;;
24521;SDS011;12680;57.804;12.190;2022-09-29T03:33:21;5.25;;;1.98;;
24521;SDS011;12680;57.804;12.190;2022-09-29T03:35:48;2.33;;;1.90;;
24521;SDS011;12680;57.804;12.190;2022-09-29T03:38:15;3.50;;;2.10;;
24521;SDS011;12680;57.804;12.190;2022-09-29T03:40:42;3.63;;;2.50;;
24521;SDS011;12680;57.804;12.190;2022-09-29T03:43:09;3.33;;;1.98;;
24521;SDS011;12680;57.804;12.190;2022-09-29T03:45:36;3.80;;;2.40;;
24521;SDS011;12680;57.804;12.190;2022-09-29T03:48:03;4.65;;;2.45;;
24521;SDS011;12680;57.804;12.190;2022-09-29T03:50:30;6.93;;;2.13;;
24521;SDS011;12680;57.804;12.190;2022-09-29T03:52:57;3.42;;;2.67;;
24521;SDS011;12680;57.804;12.190;2022-09-29T03:55:24;3.85;;;2.25;;
24521;SDS011;12680;57.804;12.190;2022-09-29T03:57:52;3.30;;;2.40;;
24521;SDS011;12680;57.804;12.190;2022-09-29T04:00:19;4.43;;;2.10;;
24521;SDS011;12680;57.804;12.190;2022-09-29T04:02:46;5.10;;;2.28;;
24521;SDS011;12680;57.804;12.190;2022-09-29T04:05:13;3.67;;;2.20;;
24521;SDS011;12680;57.804;12.190;2022-09-29T04:07:41;2.72;;;2.20;;
24521;SDS011;12680;57.804;12.190;2022-09-29T04:10:08;2.53;;;2.15;;
24521;SDS011;12680;57.804;12.190;2022-09-29T04:12:35;3.88;;;2.25;;
24521;SDS011;12680;57.804;12.190;2022-09-29T04:15:03;2.70;;;2.08;;
24521;SDS011;12680;57.804;12.190;2022-09-29T04:17:31;2.97;;;2.35;;
24521;SDS011;12680;57.804;12.190;2022-09-29T04:19:58;2.53;;;1.92;;
24521;SDS011;12680;57.804;12.190;2022-09-29T04:22:25;2.80;;;2.00;;
24521;SDS011;12680;57.804;12.190;2022-09-29T04:24:52;2.40;;;2.00;;
24521;SDS011;12680;57.804;12.190;2022-09-29T04:27:20;3.92;;;2.20;;
24521;SDS011;12680;57.804;12.190;2022-09-29T04:29:47;2.58;;;2.08;;
24521;SDS011;12680;57.804;12.190;2022-09-29T04:32:14;3.95;;;2.30;;
24521;SDS011;12680;57.804;12.190;2022-09-29T04:34:41;4.65;;;2.20;;
24521;SDS011;12680;57.804;12.190;2022-09-29T04:37:09;4.28;;;2.53;;
24521;SDS011;12680;57.804;12.190;2022-09-29T04:39:36;3.20;;;2.42;;
24521;SDS011;12680;57.804;12.190;2022-09-29T04:42:04;2.75;;;2.03;;
24521;SDS011;12680;57.804;12.190;2022-09-29T04:44:31;3.97;;;2.45;;
24521;SDS011;12680;57.804;12.190;2022-09-29T04:46:58;2.95;;;2.35;;
24521;SDS011;12680;57.804;12.190;2022-09-29T04:49:25;2.78;;;2.35;;
24521;SDS011;12680;57.804;12.190;2022-09-29T04:51:53;2.95;;;2.20;;
24521;SDS011;12680;57.804;12.190;2022-09-29T04:54:20;3.47;;;2.28;;
24521;SDS011;12680;57.804;12.190;2022-09-29T04:56:47;4.93;;;2.40;;
24521;SDS011;12680;57.804;12.190;2022-09-29T04:59:15;2.78;;;2.42;;
24521;SDS011;12680;57.804;12.190;2022-09-29T05:01:43;3.22;;;2.28;;
24521;SDS011;12680;57.804;12.190;2022-09-29T05:04:10;3.22;;;2.30;;
24521;SDS011;12680;57.804;12.190;2022-09-29T05:06:39;3.05;;;2.58;;
24521;SDS011;12680;57.804;12.190;2022-09-29T05:09:06;4.22;;;2.28;;
24521;SDS011;12680;57.804;12.190;2022-09-29T05:11:34;5.28;;;2.47;;
24521;SDS011;12680;57.804;12.190;2022-09-29T05:14:01;4.45;;;2.58;;
24521;SDS011;12680;57.804;12.190;2022-09-29T05:16:28;2.58;;;2.15;;
24521;SDS011;12680;57.804;12.190;2022-09-29T05:18:55;3.83;;;2.50;;
24521;SDS011;12680;57.804;12.190;2022-09-29T05:21:23;3.55;;;2.17;;
24521;SDS011;12680;57.804;12.190;2022-09-29T05:23:54;3.63;;;2.40;;
24521;SDS011;12680;57.804;12.190;2022-09-29T05:26:22;4.90;;;2.38;;
24521;SDS011;12680;57.804;12.190;2022-09-29T05:28:50;3.55;;;2.58;;
24521;SDS011;12680;57.804;12.190;2022-09-29T05:31:17;5.55;;;2.85;;
24521;SDS011;12680;57.804;12.190;2022-09-29T05:33:45;3.42;;;2.42;;
24521;SDS011;12680;57.804;12.190;2022-09-29T05:36:12;2.95;;;2.47;;
24521;SDS011;12680;57.804;12.190;2022-09-29T05:38:39;4.97;;;2.60;;
24521;SDS011;12680;57.804;12.190;2022-09-29T05:41:10;7.45;;;3.17;;
24521;SDS011;12680;57.804;12.190;2022-09-29T05:43:38;5.90;;;3.10;;
24521;SDS011;12680;57.804;12.190;2022-09-29T05:46:06;3.05;;;2.47;;
24521;SDS011;12680;57.804;12.190;2022-09-29T05:48:35;5.05;;;2.35;;
24521;SDS011;12680;57.804;12.190;2022-09-29T05:51:09;4.68;;;2.80;;
24521;SDS011;12680;57.804;12.190;2022-09-29T05:53:39;4.05;;;2.85;;
24521;SDS011;12680;57.804;12.190;2022-09-29T05:56:11;4.50;;;2.80;;
24521;SDS011;12680;57.804;12.190;2022-09-29T05:58:44;3.65;;;2.80;;
24521;SDS011;12680;57.804;12.190;2022-09-29T06:01:16;3.72;;;2.40;;
24521;SDS011;12680;57.804;12.190;2022-09-29T06:03:48;3.70;;;2.70;;
24521;SDS011;12680;57.804;12.190;2022-09-29T06:06:18;4.63;;;2.70;;
24521;SDS011;12680;57.804;12.190;2022-09-29T06:08:47;5.80;;;2.83;;
24521;SDS011;12680;57.804;12.190;2022-09-29T06:11:16;3.47;;;2.40;;
24521;SDS011;12680;57.804;12.190;2022-09-29T06:13:46;2.75;;;2.30;;
24521;SDS011;12680;57.804;12.190;2022-09-29T06:16:15;2.90;;;2.50;;
24521;SDS011;12680;57.804;12.190;2022-09-29T06:18:45;3.65;;;3.05;;
24521;SDS011;12680;57.804;12.190;2022-09-29T06:21:14;2.85;;;2.55;;
24521;SDS011;12680;57.804;12.190;2022-09-29T06:23:46;2.88;;;2.45;;
24521;SDS011;12680;57.804;12.190;2022-09-29T06:26:14;3.33;;;2.45;;
24521;SDS011;12680;57.804;12.190;2022-09-29T06:28:49;4.47;;;2.97;;
24521;SDS011;12680;57.804;12.190;2022-09-29T06:31:17;2.97;;;2.60;;
24521;SDS011;12680;57.804;12.190;2022-09-29T06:33:45;4.35;;;2.45;;
24521;SDS011;12680;57.804;12.190;2022-09-29T06:36:17;3.88;;;2.85;;
24521;SDS011;12680;57.804;12.190;2022-09-29T06:39:10;4.68;;;2.65;;
24521;SDS011;12680;57.804;12.190;2022-09-29T06:41:38;5.15;;;2.80;;
24521;SDS011;12680;57.804;12.190;2022-09-29T06:44:06;5.93;;;2.78;;
24521;SDS011;12680;57.804;12.190;2022-09-29T06:46:34;4.13;;;2.45;;
24521;SDS011;12680;57.804;12.190;2022-09-29T06:49:01;2.25;;;2.05;;
24521;SDS011;12680;57.804;12.190;2022-09-29T06:51:28;4.30;;;2.78;;
24521;SDS011;12680;57.804;12.190;2022-09-29T06:54:10;2.85;;;2.22;;
24521;SDS011;12680;57.804;12.190;2022-09-29T06:56:42;6.93;;;2.35;;
24521;SDS011;12680;57.804;12.190;2022-09-29T07:01:40;3.78;;;2.20;;
24521;SDS011;12680;57.804;12.190;2022-09-29T07:04:08;4.03;;;2.55;;
24521;SDS011;12680;57.804;12.190;2022-09-29T07:06:35;3.42;;;2.42;;
24521;SDS011;12680;57.804;12.190;2022-09-29T07:09:02;3.58;;;2.40;;
24521;SDS011;12680;57.804;12.190;2022-09-29T07:11:30;4.93;;;2.58;;
24521;SDS011;12680;57.804;12.190;2022-09-29T07:13:57;4.75;;;2.25;;
24521;SDS011;12680;57.804;12.190;2022-09-29T07:16:24;4.13;;;2.30;;
24521;SDS011;12680;57.804;12.190;2022-09-29T07:18:52;2.85;;;2.10;;
24521;SDS011;12680;57.804;12.190;2022-09-29T07:21:19;3.17;;;2.10;;
24521;SDS011;12680;57.804;12.190;2022-09-29T07:23:47;3.45;;;2.30;;
24521;SDS011;12680;57.804;12.190;2022-09-29T07:26:15;2.38;;;1.80;;
24521;SDS011;12680;57.804;12.190;2022-09-29T07:28:43;3.80;;;2.25;;
24521;SDS011;12680;57.804;12.190;2022-09-29T07:31:11;3.15;;;2.35;;
24521;SDS011;12680;57.804;12.190;2022-09-29T07:33:45;4.32;;;2.50;;
24521;SDS011;12680;57.804;12.190;2022-09-29T07:36:14;2.63;;;2.15;;
24521;SDS011;12680;57.804;12.190;2022-09-29T07:38:46;2.53;;;2.00;;
24521;SDS011;12680;57.804;12.190;2022-09-29T07:41:15;6.45;;;2.33;;
24521;SDS011;12680;57.804;12.190;2022-09-29T07:43:43;3.88;;;2.20;;
24521;SDS011;12680;57.804;12.190;2022-09-29T07:46:11;3.53;;;2.70;;
24521;SDS011;12680;57.804;12.190;2022-09-29T07:48:38;4.78;;;2.15;;
24521;SDS011;12680;57.804;12.190;2022-09-29T07:51:10;2.33;;;2.08;;
24521;SDS011;12680;57.804;12.190;2022-09-29T07:53:40;4.03;;;2.33;;
24521;SDS011;12680;57.804;12.190;2022-09-29T07:56:14;2.42;;;1.95;;
24521;SDS011;12680;57.804;12.190;2022-09-29T07:58:47;2.28;;;1.92;;
24521;SDS011;12680;57.804;12.190;2022-09-29T08:01:15;2.90;;;2.30;;
24521;SDS011;12680;57.804;12.190;2022-09-29T08:03:47;3.30;;;2.10;;
24521;SDS011;12680;57.804;12.190;2022-09-29T08:06:20;3.50;;;2.00;;
24521;SDS011;12680;57.804;12.190;2022-09-29T08:08:49;1.98;;;1.77;;
24521;SDS011;12680;57.804;12.190;2022-09-29T08:11:29;2.42;;;1.90;;
24521;SDS011;12680;57.804;12.190;2022-09-29T08:13:58;3.08;;;1.90;;
24521;SDS011;12680;57.804;12.190;2022-09-29T08:16:25;3.00;;;2.00;;
24521;SDS011;12680;57.804;12.190;2022-09-29T08:18:53;2.95;;;1.90;;
24521;SDS011;12680;57.804;12.190;2022-09-29T08:21:20;4.82;;;1.95;;
24521;SDS011;12680;57.804;12.190;2022-09-29T08:23:47;2.47;;;2.00;;
24521;SDS011;12680;57.804;12.190;2022-09-29T08:26:15;3.60;;;2.10;;
24521;SDS011;12680;57.804;12.190;2022-09-29T08:28:58;5.03;;;2.13;;
24521;SDS011;12680;57.804;12.190;2022-09-29T08:31:34;2.78;;;2.00;;
24521;SDS011;12680;57.804;12.190;2022-09-29T08:34:04;5.18;;;1.73;;
24521;SDS011;12680;57.804;12.190;2022-09-29T08:36:32;2.22;;;1.92;;
24521;SDS011;12680;57.804;12.190;2022-09-29T08:38:59;2.95;;;1.60;;
24521;SDS011;12680;57.804;12.190;2022-09-29T08:44:43;2.20;;;1.52;;
24521;SDS011;12680;57.804;12.190;2022-09-29T08:47:45;2.85;;;1.60;;
24521;SDS011;12680;57.804;12.190;2022-09-29T08:50:31;3.17;;;2.15;;
24521;SDS011;12680;57.804;12.190;2022-09-29T08:53:07;3.05;;;1.77;;
24521;SDS011;12680;57.804;12.190;2022-09-29T08:55:54;3.55;;;1.70;;
24521;SDS011;12680;57.804;12.190;2022-09-29T08:58:31;2.63;;;1.90;;
24521;SDS011;12680;57.804;12.190;2022-09-29T09:09:16;2.13;;;1.88;;
24521;SDS011;12680;57.804;12.190;2022-09-29T09:18:14;2.25;;;1.70;;
24521;SDS011;12680;57.804;12.190;2022-09-29T09:23:35;3.10;;;1.83;;
24521;SDS011;12680;57.804;12.190;2022-09-29T09:26:37;5.57;;;1.95;;
24521;SDS011;12680;57.804;12.190;2022-09-29T09:29:30;5.68;;;1.70;;
24521;SDS011;12680;57.804;12.190;2022-09-29T09:37:16;3.30;;;1.83;;
24521;SDS011;12680;57.804;12.190;2022-09-29T09:42:35;1.92;;;1.73;;
24521;SDS011;12680;57.804;12.190;2022-09-29T09:45:12;1.70;;;1.60;;
24521;SDS011;12680;57.804;12.190;2022-09-29T09:50:49;3.67;;;1.77;;
24521;SDS011;12680;57.804;12.190;2022-09-29T09:53:21;1.60;;;1.30;;
24521;SDS011;12680;57.804;12.190;2022-09-29T09:56:17;2.28;;;1.83;;
24521;SDS011;12680;57.804;12.190;2022-09-29T09:59:14;1.67;;;1.40;;
24521;SDS011;12680;57.804;12.190;2022-09-29T10:01:51;2.40;;;1.40;;
24521;SDS011;12680;57.804;12.190;2022-09-29T10:04:18;2.03;;;1.52;;
24521;SDS011;12680;57.804;12.190;2022-09-29T10:06:47;3.78;;;1.50;;
24521;SDS011;12680;57.804;12.190;2022-09-29T10:09:16;2.53;;;1.60;;
24521;SDS011;12680;57.804;12.190;2022-09-29T10:11:43;2.13;;;1.70;;
24521;SDS011;12680;57.804;12.190;2022-09-29T10:14:21;1.88;;;1.30;;
24521;SDS011;12680;57.804;12.190;2022-09-29T10:16:55;2.15;;;1.63;;
24521;SDS011;12680;57.804;12.190;2022-09-29T10:22:20;2.33;;;1.80;;
24521;SDS011;12680;57.804;12.190;2022-09-29T10:24:47;4.50;;;1.67;;
24521;SDS011;12680;57.804;12.190;2022-09-29T10:27:22;1.73;;;1.60;;
24521;SDS011;12680;57.804;12.190;2022-09-29T10:29:53;2.47;;;2.03;;
24521;SDS011;12680;57.804;12.190;2022-09-29T10:32:24;1.60;;;1.50;;
24521;SDS011;12680;57.804;12.190;2022-09-29T10:35:24;1.90;;;1.55;;
24521;SDS011;12680;57.804;12.190;2022-09-29T10:38:14;2.35;;;1.40;;
24521;SDS011;12680;57.804;12.190;2022-09-29T10:40:55;1.63;;;1.50;;
24521;SDS011;12680;57.804;12.190;2022-09-29T10:43:25;2.97;;;1.60;;
24521;SDS011;12680;57.804;12.190;2022-09-29T10:45:58;3.38;;;1.50;;
24521;SDS011;12680;57.804;12.190;2022-09-29T10:48:25;5.85;;;3.17;;
24521;SDS011;12680;57.804;12.190;2022-09-29T10:50:57;2.58;;;1.90;;
24521;SDS011;12680;57.804;12.190;2022-09-29T10:53:33;5.03;;;3.53;;
24521;SDS011;12680;57.804;12.190;2022-09-29T10:56:13;2.08;;;1.80;;
24521;SDS011;12680;57.804;12.190;2022-09-29T10:58:44;2.03;;;1.58;;
24521;SDS011;12680;57.804;12.190;2022-09-29T11:01:27;2.83;;;1.52;;
24521;SDS011;12680;57.804;12.190;2022-09-29T11:06:34;2.40;;;1.70;;
24521;SDS011;12680;57.804;12.190;2022-09-29T11:11:39;3.65;;;2.45;;
24521;SDS011;12680;57.804;12.190;2022-09-29T11:16:57;2.35;;;1.90;;
24521;SDS011;12680;57.804;12.190;2022-09-29T11:19:26;3.38;;;1.73;;
24521;SDS011;12680;57.804;12.190;2022-09-29T11:41:40;3.10;;;1.63;;
24521;SDS011;12680;57.804;12.190;2022-09-29T12:03:22;6.53;;;1.80;;
24521;SDS011;12680;57.804;12.190;2022-09-29T12:08:50;3.80;;;1.88;;
24521;SDS011;12680;57.804;12.190;2022-09-29T12:14:34;1.98;;;1.55;;
24521;SDS011;12680;57.804;12.190;2022-09-29T12:17:11;3.30;;;1.90;;
24521;SDS011;12680;57.804;12.190;2022-09-29T12:19:41;4.80;;;1.70;;
24521;SDS011;12680;57.804;12.190;2022-09-29T12:22:14;2.40;;;1.70;;
24521;SDS011;12680;57.804;12.190;2022-09-29T12:24:49;3.17;;;1.60;;
24521;SDS011;12680;57.804;12.190;2022-09-29T12:30:31;2.42;;;1.85;;
24521;SDS011;12680;57.804;12.190;2022-09-29T12:35:56;2.63;;;1.90;;
24521;SDS011;12680;57.804;12.190;2022-09-29T12:38:54;5.60;;;1.92;;
24521;SDS011;12680;57.804;12.190;2022-09-29T12:41:28;2.20;;;1.60;;
24521;SDS011;12680;57.804;12.190;2022-09-29T12:44:03;2.35;;;1.85;;
24521;SDS011;12680;57.804;12.190;2022-09-29T12:52:31;1.50;;;1.40;;
24521;SDS011;12680;57.804;12.190;2022-09-29T12:55:27;2.58;;;2.08;;
24521;SDS011;12680;57.804;12.190;2022-09-29T12:58:23;6.90;;;1.70;;
24521;SDS011;12680;57.804;12.190;2022-09-29T13:01:02;2.75;;;1.80;;
24521;SDS011;12680;57.804;12.190;2022-09-29T13:09:32;2.70;;;1.83;;
24521;SDS011;12680;57.804;12.190;2022-09-29T13:24:11;2.00;;;1.80;;
24521;SDS011;12680;57.804;12.190;2022-09-29T13:29:53;3.63;;;1.60;;
24521;SDS011;12680;57.804;12.190;2022-09-29T13:32:42;2.28;;;1.50;;
24521;SDS011;12680;57.804;12.190;2022-09-29T13:35:11;1.98;;;1.60;;
24521;SDS011;12680;57.804;12.190;2022-09-29T13:37:47;1.70;;;1.60;;
24521;SDS011;12680;57.804;12.190;2022-09-29T13:40:25;2.15;;;1.70;;
24521;SDS011;12680;57.804;12.190;2022-09-29T13:43:00;1.98;;;1.70;;
24521;SDS011;12680;57.804;12.190;2022-09-29T13:48:01;1.85;;;1.52;;
24521;SDS011;12680;57.804;12.190;2022-09-29T13:50:50;1.60;;;1.38;;
24521;SDS011;12680;57.804;12.190;2022-09-29T13:55:52;2.78;;;1.52;;
24521;SDS011;12680;57.804;12.190;2022-09-29T14:01:09;1.98;;;1.58;;
24521;SDS011;12680;57.804;12.190;2022-09-29T14:03:42;2.42;;;1.40;;
24521;SDS011;12680;57.804;12.190;2022-09-29T14:06:19;3.65;;;1.60;;
24521;SDS011;12680;57.804;12.190;2022-09-29T14:09:07;2.25;;;1.77;;
24521;SDS011;12680;57.804;12.190;2022-09-29T14:11:46;2.78;;;1.73;;
24521;SDS011;12680;57.804;12.190;2022-09-29T14:14:21;1.83;;;1.60;;
24521;SDS011;12680;57.804;12.190;2022-09-29T14:16:56;5.82;;;3.17;;
24521;SDS011;12680;57.804;12.190;2022-09-29T14:22:51;2.17;;;1.75;;
24521;SDS011;12680;57.804;12.190;2022-09-29T14:27:34;1.60;;;1.50;;
24521;SDS011;12680;57.804;12.190;2022-09-29T14:41:00;1.90;;;1.50;;
24521;SDS011;12680;57.804;12.190;2022-09-29T14:43:39;2.47;;;1.67;;
24521;SDS011;12680;57.804;12.190;2022-09-29T15:00:14;1.45;;;1.20;;
24521;SDS011;12680;57.804;12.190;2022-09-29T15:02:47;2.55;;;1.40;;
24521;SDS011;12680;57.804;12.190;2022-09-29T15:05:31;1.98;;;1.30;;
24521;SDS011;12680;57.804;12.190;2022-09-29T15:08:00;2.33;;;1.25;;
24521;SDS011;12680;57.804;12.190;2022-09-29T15:10:30;1.65;;;1.40;;
24521;SDS011;12680;57.804;12.190;2022-09-29T15:13:25;1.08;;;1.00;;
24521;SDS011;12680;57.804;12.190;2022-09-29T15:16:10;1.25;;;1.10;;
24521;SDS011;12680;57.804;12.190;2022-09-29T15:19:01;1.20;;;1.10;;
24521;SDS011;12680;57.804;12.190;2022-09-29T15:27:35;1.73;;;1.23;;
24521;SDS011;12680;57.804;12.190;2022-09-29T15:30:06;1.60;;;1.23;;
24521;SDS011;12680;57.804;12.190;2022-09-29T15:32:43;1.80;;;1.02;;
24521;SDS011;12680;57.804;12.190;2022-09-29T15:35:16;1.75;;;1.10;;
24521;SDS011;12680;57.804;12.190;2022-09-29T15:37:57;2.90;;;1.63;;
24521;SDS011;12680;57.804;12.190;2022-09-29T15:40:51;2.78;;;2.30;;
24521;SDS011;12680;57.804;12.190;2022-09-29T15:43:21;1.80;;;1.70;;
24521;SDS011;12680;57.804;12.190;2022-09-29T15:45:57;2.08;;;1.50;;
24521;SDS011;12680;57.804;12.190;2022-09-29T15:48:26;2.05;;;1.55;;
24521;SDS011;12680;57.804;12.190;2022-09-29T15:50:54;1.60;;;1.50;;
24521;SDS011;12680;57.804;12.190;2022-09-29T15:53:24;7.65;;;2.17;;
24521;SDS011;12680;57.804;12.190;2022-09-29T15:55:53;1.42;;;1.33;;
24521;SDS011;12680;57.804;12.190;2022-09-29T16:01:04;2.20;;;1.33;;
24521;SDS011;12680;57.804;12.190;2022-09-29T16:09:03;1.40;;;1.30;;
24521;SDS011;12680;57.804;12.190;2022-09-29T16:11:34;1.35;;;1.25;;
24521;SDS011;12680;57.804;12.190;2022-09-29T16:14:07;2.80;;;1.30;;
24521;SDS011;12680;57.804;12.190;2022-09-29T16:16:41;2.50;;;1.40;;
24521;SDS011;12680;57.804;12.190;2022-09-29T16:19:21;2.20;;;1.88;;
24521;SDS011;12680;57.804;12.190;2022-09-29T16:21:57;6.85;;;3.55;;
24521;SDS011;12680;57.804;12.190;2022-09-29T16:24:28;8.07;;;4.05;;
24521;SDS011;12680;57.804;12.190;2022-09-29T16:26:57;6.30;;;4.70;;
24521;SDS011;12680;57.804;12.190;2022-09-29T16:35:54;3.83;;;2.80;;
24521;SDS011;12680;57.804;12.190;2022-09-29T16:38:10;4.10;;;2.30;;
24521;SDS011;12680;57.804;12.190;2022-09-29T16:40:41;2.60;;;1.50;;
24521;SDS011;12680;57.804;12.190;2022-09-29T16:43:25;6.35;;;1.83;;
24521;SDS011;12680;57.804;12.190;2022-09-29T16:46:01;3.33;;;1.73;;
24521;SDS011;12680;57.804;12.190;2022-09-29T16:48:35;7.97;;;2.88;;
24521;SDS011;12680;57.804;12.190;2022-09-29T16:51:12;6.35;;;2.75;;
24521;SDS011;12680;57.804;12.190;2022-09-29T16:54:03;10.90;;;3.83;;
24521;SDS011;12680;57.804;12.190;2022-09-29T16:56:30;8.07;;;3.67;;
24521;SDS011;12680;57.804;12.190;2022-09-29T16:59:11;6.38;;;2.40;;
24521;SDS011;12680;57.804;12.190;2022-09-29T17:01:42;5.47;;;2.40;;
24521;SDS011;12680;57.804;12.190;2022-09-29T17:04:11;5.22;;;2.03;;
24521;SDS011;12680;57.804;12.190;2022-09-29T17:06:40;3.00;;;2.20;;
24521;SDS011;12680;57.804;12.190;2022-09-29T17:09:26;3.22;;;2.05;;
24521;SDS011;12680;57.804;12.190;2022-09-29T17:11:53;2.63;;;1.90;;
24521;SDS011;12680;57.804;12.190;2022-09-29T17:14:20;2.83;;;1.85;;
24521;SDS011;12680;57.804;12.190;2022-09-29T17:16:48;3.40;;;1.83;;
24521;SDS011;12680;57.804;12.190;2022-09-29T17:19:17;1.70;;;1.60;;
24521;SDS011;12680;57.804;12.190;2022-09-29T17:21:44;4.20;;;1.63;;
24521;SDS011;12680;57.804;12.190;2022-09-29T17:24:12;3.47;;;1.50;;
24521;SDS011;12680;57.804;12.190;2022-09-29T17:26:40;1.45;;;1.30;;
24521;SDS011;12680;57.804;12.190;2022-09-29T17:29:28;3.88;;;2.20;;
24521;SDS011;12680;57.804;12.190;2022-09-29T17:31:56;2.60;;;1.80;;
24521;SDS011;12680;57.804;12.190;2022-09-29T17:34:24;2.22;;;1.70;;
24521;SDS011;12680;57.804;12.190;2022-09-29T17:36:55;1.65;;;1.55;;
24521;SDS011;12680;57.804;12.190;2022-09-29T17:39:28;1.55;;;1.13;;
24521;SDS011;12680;57.804;12.190;2022-09-29T17:41:56;2.38;;;1.55;;
24521;SDS011;12680;57.804;12.190;2022-09-29T17:44:24;4.78;;;2.38;;
24521;SDS011;12680;57.804;12.190;2022-09-29T17:46:53;3.17;;;2.20;;
24521;SDS011;12680;57.804;12.190;2022-09-29T17:49:43;8.65;;;5.22;;
24521;SDS011;12680;57.804;12.190;2022-09-29T17:52:15;14.82;;;6.00;;
24521;SDS011;12680;57.804;12.190;2022-09-29T17:54:45;7.30;;;4.78;;
24521;SDS011;12680;57.804;12.190;2022-09-29T17:57:16;9.25;;;4.63;;
24521;SDS011;12680;57.804;12.190;2022-09-29T17:59:47;6.53;;;4.18;;
24521;SDS011;12680;57.804;12.190;2022-09-29T18:02:14;6.75;;;2.33;;
24521;SDS011;12680;57.804;12.190;2022-09-29T18:04:42;4.05;;;2.15;;
24521;SDS011;12680;57.804;12.190;2022-09-29T18:07:13;3.90;;;2.08;;
24521;SDS011;12680;57.804;12.190;2022-09-29T18:09:41;5.90;;;3.47;;
24521;SDS011;12680;57.804;12.190;2022-09-29T18:12:10;9.75;;;5.30;;
24521;SDS011;12680;57.804;12.190;2022-09-29T18:14:37;8.93;;;5.07;;
24521;SDS011;12680;57.804;12.190;2022-09-29T18:17:04;9.68;;;5.85;;
24521;SDS011;12680;57.804;12.190;2022-09-29T18:19:31;9.05;;;5.95;;
24521;SDS011;12680;57.804;12.190;2022-09-29T18:22:01;12.25;;;7.20;;
24521;SDS011;12680;57.804;12.190;2022-09-29T18:24:32;11.00;;;7.43;;
24521;SDS011;12680;57.804;12.190;2022-09-29T18:27:00;7.85;;;5.53;;
24521;SDS011;12680;57.804;12.190;2022-09-29T18:29:28;8.43;;;4.53;;
24521;SDS011;12680;57.804;12.190;2022-09-29T18:31:57;6.57;;;3.55;;
24521;SDS011;12680;57.804;12.190;2022-09-29T18:34:25;7.35;;;3.35;;
24521;SDS011;12680;57.804;12.190;2022-09-29T18:36:56;3.22;;;2.70;;
24521;SDS011;12680;57.804;12.190;2022-09-29T18:39:23;2.97;;;2.15;;
24521;SDS011;12680;57.804;12.190;2022-09-29T18:41:50;2.70;;;2.20;;